Time;durP1;ratioP1;P1;durP2;ratioP2;P2;SDS_P1;SDS_P2;PMS_P1;PMS_P2;Temp;Humidity;BMP_temperature;BMP_pressure;BME280_temperature;BME280_humidity;BME280_pressure;Samples;Min_cycle;Max_cycle;Signal;HPM_P1;HPM_P2
2022/07/27 00:02:14;;;;;;;11.07;7.63;;;;;;;21.00;100.00;97760.44;5012610;28;20021;-75
2022/07/27 00:04:39;;;;;;;9.25;6.68;;;;;;;21.02;100.00;97758.09;5012546;28;20120;-75
2022/07/27 00:07:04;;;;;;;11.57;6.35;;;;;;;21.03;100.00;97770.81;5012341;28;20064;-74
2022/07/27 00:09:30;;;;;;;9.98;5.80;;;;;;;20.97;100.00;97778.66;4995114;28;20033;-74
2022/07/27 00:11:55;;;;;;;10.00;5.82;;;;;;;20.97;100.00;97767.53;5012583;28;20041;-75
2022/07/27 00:14:20;;;;;;;7.38;5.28;;;;;;;20.98;100.00;97774.72;5012218;28;20033;-75
2022/07/27 00:16:46;;;;;;;9.05;5.38;;;;;;;20.97;100.00;97769.50;5011646;28;20022;-74
2022/07/27 00:19:11;;;;;;;10.13;6.25;;;;;;;21.05;100.00;97760.94;5012376;28;20034;-75
2022/07/27 00:21:37;;;;;;;8.50;5.70;;;;;;;21.11;100.00;97756.69;5012330;28;20036;-75
2022/07/27 00:24:02;;;;;;;8.20;5.18;;;;;;;21.18;100.00;97756.84;4994851;28;20176;-75
2022/07/27 00:26:27;;;;;;;8.18;5.88;;;;;;;21.09;100.00;97750.72;4994757;28;20053;-75
2022/07/27 00:28:53;;;;;;;6.40;4.93;;;;;;;21.02;100.00;97752.53;5012046;28;20056;-75
2022/07/27 00:31:18;;;;;;;8.00;5.43;;;;;;;21.03;100.00;97751.34;5011865;28;20111;-75
2022/07/27 00:33:44;;;;;;;9.10;5.78;;;;;;;20.99;100.00;97747.72;5012068;28;20090;-74
2022/07/27 00:36:09;;;;;;;8.32;5.90;;;;;;;20.89;100.00;97748.31;5012099;28;20030;-75
2022/07/27 00:38:34;;;;;;;10.48;5.38;;;;;;;20.94;100.00;97737.69;5011902;28;20054;-75
2022/07/27 00:41:00;;;;;;;9.35;5.35;;;;;;;20.82;100.00;97752.56;5012181;28;20076;-74
2022/07/27 00:43:25;;;;;;;7.47;6.20;;;;;;;20.95;100.00;97742.09;5011996;28;20033;-75
2022/07/27 00:45:50;;;;;;;7.30;5.45;;;;;;;21.00;100.00;97739.00;5011684;28;20022;-74
2022/07/27 00:48:16;;;;;;;12.60;6.38;;;;;;;20.96;100.00;97740.88;5011615;28;20478;-75
2022/07/27 00:50:42;;;;;;;10.55;6.10;;;;;;;21.01;100.00;97737.81;5011604;28;20068;-75
2022/07/27 00:53:09;;;;;;;8.18;6.13;;;;;;;21.08;100.00;97745.50;5011668;28;20474;-75
2022/07/27 00:55:35;;;;;;;8.52;6.10;;;;;;;21.05;100.00;97724.78;5011818;28;20048;-75
2022/07/27 00:58:03;;;;;;;6.90;5.15;;;;;;;21.07;100.00;97733.56;5011675;28;20030;-75
2022/07/27 01:00:29;;;;;;;8.23;5.88;;;;;;;21.02;100.00;97730.28;5011750;28;20052;-74
2022/07/27 01:02:54;;;;;;;7.97;6.03;;;;;;;21.03;100.00;97741.03;5011711;28;20030;-75
2022/07/27 01:05:21;;;;;;;8.13;5.72;;;;;;;21.05;100.00;97727.56;5011519;28;20025;-75
2022/07/27 01:07:48;;;;;;;7.03;5.40;;;;;;;21.10;100.00;97732.84;4994011;28;20363;-75
2022/07/27 01:10:13;;;;;;;6.93;5.13;;;;;;;21.13;100.00;97734.09;5011516;28;20026;-75
2022/07/27 01:12:39;;;;;;;8.15;6.30;;;;;;;21.15;100.00;97729.75;5011222;28;20371;-75
2022/07/27 01:15:05;;;;;;;7.07;5.53;;;;;;;21.11;100.00;97723.31;5014654;28;21055;-74
2022/07/27 01:17:31;;;;;;;12.98;6.60;;;;;;;21.15;100.00;97732.53;5016592;28;20072;-75
2022/07/27 01:19:57;;;;;;;8.88;6.85;;;;;;;21.14;100.00;97728.19;5013838;28;20110;-74
2022/07/27 01:22:23;;;;;;;9.88;7.22;;;;;;;21.20;100.00;97734.22;5011160;28;20030;-75
2022/07/27 01:24:49;;;;;;;9.20;6.60;;;;;;;21.16;100.00;97725.00;5011276;28;20168;-75
2022/07/27 01:27:14;;;;;;;8.57;6.50;;;;;;;21.12;100.00;97733.28;5010435;28;20041;-74
2022/07/27 01:29:40;;;;;;;9.10;6.22;;;;;;;21.07;100.00;97724.41;5010812;28;20030;-74
2022/07/27 01:32:06;;;;;;;8.25;5.82;;;;;;;21.08;100.00;97729.59;5011014;28;20513;-75
2022/07/27 01:34:32;;;;;;;7.32;5.57;;;;;;;21.05;100.00;97724.78;5010743;28;20132;-75
2022/07/27 01:36:59;;;;;;;8.23;6.43;;;;;;;21.00;100.00;97727.88;5011105;28;20109;-75
2022/07/27 01:39:24;;;;;;;8.02;5.43;;;;;;;21.00;100.00;97733.44;4993498;28;20128;-73
2022/07/27 01:41:49;;;;;;;7.53;5.90;;;;;;;20.88;100.00;97721.66;5010803;28;20518;-74
2022/07/27 01:44:15;;;;;;;9.10;6.07;;;;;;;20.90;100.00;97736.81;5010949;28;20564;-73
2022/07/27 01:46:40;;;;;;;8.07;6.03;;;;;;;20.95;100.00;97730.16;5010895;28;20022;-73
2022/07/27 01:49:06;;;;;;;7.13;5.93;;;;;;;20.89;100.00;97735.22;5010798;28;20036;-76
2022/07/27 01:51:31;;;;;;;10.60;6.38;;;;;;;20.85;100.00;97734.34;5010814;28;20053;-75
2022/07/27 01:53:57;;;;;;;8.02;5.85;;;;;;;20.71;100.00;97743.19;5010783;28;20411;-74
2022/07/27 01:56:22;;;;;;;8.98;6.45;;;;;;;20.78;100.00;97729.44;5010724;28;20471;-74
2022/07/27 01:58:48;;;;;;;7.25;6.00;;;;;;;20.75;100.00;97726.59;5010722;28;20026;-74
2022/07/27 02:01:13;;;;;;;10.98;6.07;;;;;;;20.90;100.00;97728.47;5010695;28;20109;-73
2022/07/27 02:03:39;;;;;;;8.27;5.45;;;;;;;20.93;100.00;97733.28;5010708;28;20030;-75
2022/07/27 02:06:04;;;;;;;9.15;5.90;;;;;;;20.95;100.00;97730.16;5010927;28;20025;-76
2022/07/27 02:08:31;;;;;;;8.57;6.00;;;;;;;20.93;100.00;97726.91;4993039;28;20116;-75
2022/07/27 02:13:46;;;;;;;7.57;5.80;;;;;;;20.85;100.00;97714.88;5010326;28;20506;-75
2022/07/27 02:16:16;;;;;;;7.93;5.45;;;;;;;20.87;100.00;97720.84;5010626;28;20113;-75
2022/07/27 02:18:41;;;;;;;7.32;5.47;;;;;;;20.83;100.00;97714.44;5010473;28;20026;-74
2022/07/27 02:21:07;;;;;;;7.30;4.75;;;;;;;21.00;100.00;97722.31;4993047;28;20498;-75
2022/07/27 02:23:34;;;;;;;10.07;5.88;;;;;;;21.07;100.00;97722.44;4992838;28;20045;-74
2022/07/27 02:26:00;;;;;;;8.40;6.43;;;;;;;21.02;100.00;97708.03;5010408;28;20116;-75
2022/07/27 02:28:25;;;;;;;8.55;6.03;;;;;;;21.07;100.00;97705.75;5010498;28;20109;-75
2022/07/27 02:30:51;;;;;;;6.93;5.45;;;;;;;21.09;100.00;97708.97;5010585;28;20118;-75
2022/07/27 02:33:16;;;;;;;7.70;5.95;;;;;;;20.98;100.00;97705.19;4992805;28;20034;-75
2022/07/27 02:35:42;;;;;;;9.00;5.93;;;;;;;20.81;100.00;97703.69;5010293;28;20026;-75
2022/07/27 02:38:07;;;;;;;11.10;6.55;;;;;;;20.78;100.00;97707.19;5010524;28;20289;-75
2022/07/27 02:40:32;;;;;;;10.30;6.30;;;;;;;20.70;100.00;97702.69;5013669;28;20390;-75
2022/07/27 02:42:58;;;;;;;8.55;6.15;;;;;;;20.70;100.00;97696.31;5014130;28;20398;-75
2022/07/27 02:45:23;;;;;;;9.30;6.03;;;;;;;20.72;100.00;97703.09;5013890;28;20033;-75
2022/07/27 02:47:48;;;;;;;9.13;6.45;;;;;;;20.63;100.00;97704.50;4996257;28;20050;-75
2022/07/27 02:50:14;;;;;;;8.07;6.35;;;;;;;20.67;100.00;97708.97;5014210;28;20029;-74
2022/07/27 02:52:39;;;;;;;8.68;6.70;;;;;;;20.57;100.00;97703.19;5014055;28;20125;-75
2022/07/27 02:55:06;;;;;;;7.35;5.88;;;;;;;20.57;100.00;97698.44;5013981;28;20381;-74
2022/07/27 02:57:36;;;;;;;8.50;6.00;;;;;;;20.61;100.00;97698.53;5013634;28;20412;-75
2022/07/27 03:00:04;;;;;;;9.65;6.13;;;;;;;20.49;100.00;97706.97;5013706;28;20034;-74
2022/07/27 03:02:30;;;;;;;8.95;5.75;;;;;;;20.50;100.00;97703.03;5013683;28;20032;-74
2022/07/27 03:04:55;;;;;;;8.52;6.63;;;;;;;20.41;100.00;97710.78;5013743;28;20394;-75
2022/07/27 03:07:20;;;;;;;8.65;6.40;;;;;;;20.42;100.00;97710.44;5013748;28;20026;-75
2022/07/27 03:09:46;;;;;;;6.43;5.55;;;;;;;20.37;100.00;97710.72;5013632;28;20057;-75
2022/07/27 03:12:11;;;;;;;8.55;5.90;;;;;;;20.36;100.00;97719.44;5013459;28;20133;-74
2022/07/27 03:14:36;;;;;;;10.95;6.13;;;;;;;20.32;100.00;97707.44;5013477;28;20057;-73
2022/07/27 03:17:01;;;;;;;8.93;6.13;;;;;;;20.27;100.00;97705.75;5013522;28;20041;-75
2022/07/27 03:19:27;;;;;;;8.85;6.18;;;;;;;20.30;100.00;97711.38;5013330;28;20056;-75
2022/07/27 03:21:52;;;;;;;9.07;6.28;;;;;;;20.29;100.00;97712.56;5013543;28;20084;-75
2022/07/27 03:24:18;;;;;;;8.20;5.95;;;;;;;20.35;100.00;97717.81;5013414;28;20025;-75
2022/07/27 03:26:44;;;;;;;11.10;6.10;;;;;;;20.36;100.00;97714.66;5013279;28;20037;-74
2022/07/27 03:29:09;;;;;;;7.90;5.55;;;;;;;20.36;100.00;97711.09;5013708;28;20045;-75
2022/07/27 03:31:35;;;;;;;8.55;5.72;;;;;;;20.19;100.00;97720.63;5016438;28;20014;-75
2022/07/27 03:34:00;;;;;;;9.30;6.10;;;;;;;20.15;100.00;97730.84;5015580;28;20034;-74
2022/07/27 03:36:25;;;;;;;9.05;6.30;;;;;;;20.06;100.00;97739.38;5013066;28;20048;-74
2022/07/27 03:38:50;;;;;;;8.07;6.38;;;;;;;19.97;100.00;97736.00;5012934;28;20049;-75
2022/07/27 03:41:17;;;;;;;9.10;6.43;;;;;;;19.86;100.00;97739.72;5012997;28;20123;-75
2022/07/27 03:43:42;;;;;;;18.75;6.50;;;;;;;19.76;100.00;97729.97;5013069;28;20040;-75
2022/07/27 03:46:08;;;;;;;7.32;5.97;;;;;;;19.82;100.00;97722.97;5013684;28;20018;-74
2022/07/27 03:48:33;;;;;;;7.60;5.70;;;;;;;19.96;100.00;97734.38;5015909;28;20026;-74
2022/07/27 03:50:58;;;;;;;8.38;5.95;;;;;;;19.98;100.00;97737.63;5015940;28;20144;-75
2022/07/27 03:53:24;;;;;;;10.63;6.90;;;;;;;19.97;100.00;97738.78;5014812;28;20044;-74
2022/07/27 03:55:50;;;;;;;6.50;5.60;;;;;;;19.97;100.00;97736.00;5012971;28;20076;-74
2022/07/27 03:58:16;;;;;;;11.98;6.63;;;;;;;19.88;100.00;97726.28;5012759;28;20034;-74
2022/07/27 04:00:42;;;;;;;6.93;5.85;;;;;;;19.96;100.00;97728.84;5012879;28;20028;-75
2022/07/27 04:03:07;;;;;;;9.68;5.78;;;;;;;19.89;100.00;97723.13;5013085;28;20026;-74
2022/07/27 04:05:33;;;;;;;9.77;6.57;;;;;;;19.94;100.00;97727.59;5012742;28;20485;-74
2022/07/27 04:07:58;;;;;;;9.88;5.97;;;;;;;19.99;100.00;97730.88;5012868;28;20113;-75
2022/07/27 04:10:24;;;;;;;7.95;6.20;;;;;;;19.98;100.00;97722.94;5012677;28;20026;-74
2022/07/27 04:12:50;;;;;;;8.38;6.53;;;;;;;19.96;100.00;97712.19;5012536;28;20042;-75
2022/07/27 04:15:17;;;;;;;8.32;6.28;;;;;;;20.02;100.00;97718.25;5012528;28;20037;-75
2022/07/27 04:17:43;;;;;;;9.32;6.70;;;;;;;20.00;100.00;97717.81;5012630;28;20053;-74
2022/07/27 04:20:08;;;;;;;8.65;6.43;;;;;;;20.00;100.00;97724.19;5012328;28;20483;-74
2022/07/27 04:22:34;;;;;;;9.88;5.75;;;;;;;20.06;100.00;97731.06;5012590;28;20033;-74
2022/07/27 04:24:59;;;;;;;11.40;6.20;;;;;;;20.06;100.00;97731.06;5012361;28;20113;-74
2022/07/27 04:27:25;;;;;;;9.05;6.78;;;;;;;20.11;100.00;97713.31;5012192;28;20034;-73
2022/07/27 04:29:50;;;;;;;7.07;5.85;;;;;;;20.27;100.00;97719.63;4994539;28;20076;-74
2022/07/27 04:32:15;;;;;;;9.48;7.03;;;;;;;20.32;100.00;97719.34;5012129;28;20106;-74
2022/07/27 04:34:40;;;;;;;17.45;6.55;;;;;;;20.50;100.00;97714.16;5012212;28;20026;-75
2022/07/27 04:37:06;;;;;;;7.88;5.63;;;;;;;20.63;100.00;97718.41;5011880;28;20538;-75
2022/07/27 04:39:31;;;;;;;10.20;6.15;;;;;;;20.89;100.00;97714.94;5011808;28;20061;-75
2022/07/27 04:41:56;;;;;;;10.63;6.70;;;;;;;21.15;100.00;97715.03;4994398;28;20065;-75
2022/07/27 04:44:22;;;;;;;8.93;5.80;;;;;;;21.22;100.00;97715.19;5011920;28;20033;-74
2022/07/27 04:46:47;;;;;;;10.20;5.72;;;;;;;21.50;100.00;97717.63;5011782;28;20029;-75
2022/07/27 04:49:13;;;;;;;10.55;5.88;;;;;;;21.78;100.00;97723.66;5011855;28;20105;-75
2022/07/27 04:51:41;;;;;;;9.10;6.82;;;;;;;22.24;100.00;97714.00;4994150;28;20030;-75
2022/07/27 04:54:07;;;;;;;15.23;6.30;;;;;;;22.27;100.00;97729.19;5011859;28;20033;-74
2022/07/27 04:56:32;;;;;;;8.70;6.57;;;;;;;22.48;100.00;97726.69;5011703;28;20030;-73
2022/07/27 04:58:57;;;;;;;10.18;5.65;;;;;;;22.63;100.00;97736.03;5011560;28;20018;-76
2022/07/27 05:01:24;;;;;;;9.95;6.93;;;;;;;23.07;100.00;97725.00;5011754;28;20049;-74
2022/07/27 05:03:51;;;;;;;7.50;6.18;;;;;;;23.70;100.00;97739.59;5011580;28;20057;-77
2022/07/27 05:06:16;;;;;;;10.55;6.03;;;;;;;24.25;100.00;97748.78;5011729;28;20113;-74
2022/07/27 05:08:42;;;;;;;7.20;5.72;;;;;;;23.85;100.00;97744.09;5011403;28;20112;-74
2022/07/27 05:11:07;;;;;;;10.30;6.32;;;;;;;22.93;100.00;97750.75;5011372;28;20057;-75
2022/07/27 05:13:34;;;;;;;10.05;6.45;;;;;;;23.05;100.00;97746.91;4993517;28;20061;-74
2022/07/27 05:16:00;;;;;;;9.30;6.55;;;;;;;23.66;100.00;97749.94;5011429;28;20029;-75
2022/07/27 05:18:25;;;;;;;8.32;6.20;;;;;;;23.78;100.00;97752.44;5011311;28;20026;-75
2022/07/27 05:20:51;;;;;;;11.30;7.22;;;;;;;23.65;100.00;97753.91;5011363;28;20052;-75
2022/07/27 05:23:16;;;;;;;11.35;7.53;;;;;;;23.52;100.00;97751.81;5011359;28;20088;-75
2022/07/27 05:25:41;;;;;;;8.93;6.65;;;;;;;23.51;100.00;97755.78;5011007;28;20026;-75
2022/07/27 05:28:07;;;;;;;9.00;7.10;;;;;;;23.48;100.00;97756.56;5010968;28;20502;-75
2022/07/27 05:30:32;;;;;;;10.70;6.93;;;;;;;23.51;100.00;97758.56;5011161;28;20390;-76
2022/07/27 05:32:57;;;;;;;9.80;7.05;;;;;;;23.37;100.00;97754.41;5011111;28;20500;-73
2022/07/27 05:35:23;;;;;;;14.57;6.43;;;;;;;23.42;100.00;97761.69;5011197;28;20053;-76
2022/07/27 05:37:48;;;;;;;8.60;6.68;;;;;;;23.29;100.00;97755.56;5011087;28;20049;-75
2022/07/27 05:40:14;;;;;;;8.70;5.95;;;;;;;23.18;100.00;97756.63;5010933;28;20550;-75
2022/07/27 05:42:43;;;;;;;9.45;5.85;;;;;;;23.24;100.00;97769.84;5011037;28;20069;-75
2022/07/27 05:45:09;;;;;;;8.13;5.80;;;;;;;23.33;100.00;97770.34;5011037;28;20026;-75
2022/07/27 05:47:35;;;;;;;8.70;6.40;;;;;;;23.43;100.00;97778.03;5013565;28;20058;-75
2022/07/27 05:50:00;;;;;;;10.57;6.57;;;;;;;23.73;100.00;97783.53;5013195;28;20048;-75
2022/07/27 05:52:26;;;;;;;10.85;7.00;;;;;;;23.87;100.00;97769.66;5010887;28;20030;-75
2022/07/27 05:54:51;;;;;;;9.88;6.68;;;;;;;24.24;100.00;97786.34;5010842;28;20137;-74
2022/07/27 05:57:16;;;;;;;11.02;6.82;;;;;;;24.75;100.00;97788.22;5010403;28;20030;-74
2022/07/27 05:59:42;;;;;;;10.63;6.13;;;;;;;24.76;100.00;97787.03;5010894;28;20087;-74
2022/07/27 06:02:07;;;;;;;9.30;5.97;;;;;;;25.43;96.79;97782.50;5010772;28;20026;-75
2022/07/27 06:04:33;;;;;;;13.30;5.75;;;;;;;25.64;95.19;97792.16;5010698;28;20034;-75
2022/07/27 06:09:42;;;;;;;9.68;6.20;;;;;;;25.06;98.29;97786.81;5010697;28;20049;-75
2022/07/27 06:12:07;;;;;;;10.05;6.43;;;;;;;24.67;100.00;97789.38;5010746;28;20026;-75
2022/07/27 06:14:33;;;;;;;12.85;6.70;;;;;;;24.77;100.00;97785.84;5012365;28;20493;-76
2022/07/27 06:16:58;;;;;;;9.45;6.25;;;;;;;24.13;100.00;97782.66;5014681;28;20026;-75
2022/07/27 06:19:24;;;;;;;9.57;5.90;;;;;;;24.26;100.00;97775.56;5014560;28;20014;-75
2022/07/27 06:21:49;;;;;;;7.95;5.60;;;;;;;24.21;100.00;97787.13;4980581;28;20040;-74
2022/07/27 06:24:15;;;;;;;7.90;4.88;;;;;;;24.29;100.00;97782.38;5014375;28;20026;-75
2022/07/27 06:26:40;;;;;;;8.32;5.60;;;;;;;24.13;100.00;97773.47;5013726;28;20042;-75
2022/07/27 06:29:06;;;;;;;13.50;6.07;;;;;;;24.44;100.00;97779.28;5014657;28;20037;-75
2022/07/27 06:31:31;;;;;;;11.18;6.25;;;;;;;24.35;100.00;97784.41;5014295;28;20017;-74
2022/07/27 06:33:56;;;;;;;11.90;6.53;;;;;;;24.51;100.00;97784.91;5014564;28;20034;-75
2022/07/27 06:36:23;;;;;;;8.85;5.70;;;;;;;25.01;99.24;97780.38;5014467;28;20032;-75
2022/07/27 06:38:48;;;;;;;16.50;5.60;;;;;;;25.20;96.92;97796.03;5014036;28;20093;-74
2022/07/27 06:41:14;;;;;;;7.68;5.90;;;;;;;24.48;100.00;97796.88;5014077;28;20501;-75
2022/07/27 06:43:39;;;;;;;9.93;6.18;;;;;;;23.87;100.00;97799.63;5014226;28;20100;-75
2022/07/27 06:46:06;;;;;;;9.23;6.10;;;;;;;23.96;100.00;97798.06;5014185;28;20548;-75
2022/07/27 06:48:32;;;;;;;14.88;5.68;;;;;;;24.05;100.00;97789.38;5014029;28;20021;-75
2022/07/27 06:50:58;;;;;;;8.48;6.07;;;;;;;24.28;100.00;97794.75;5014055;28;20536;-74
2022/07/27 06:53:24;;;;;;;10.70;6.57;;;;;;;24.63;99.24;97797.75;5014041;28;20047;-75
2022/07/27 06:55:49;;;;;;;9.05;6.22;;;;;;;24.57;99.56;97802.13;5013986;28;20034;-75
2022/07/27 06:58:15;;;;;;;7.57;4.95;;;;;;;24.49;97.48;97809.69;5013902;28;20084;-76
2022/07/27 07:00:41;;;;;;;8.10;5.82;;;;;;;24.63;96.21;97819.34;5014014;28;20030;-74
2022/07/27 07:03:06;;;;;;;9.60;4.97;;;;;;;24.17;100.00;97828.22;5013699;28;20109;-74
2022/07/27 07:05:39;;;;;;;7.53;5.57;;;;;;;24.15;99.89;97827.03;4996097;28;20029;-75
2022/07/27 07:08:10;;;;;;;9.30;6.30;;;;;;;24.01;100.00;97827.66;5013821;28;20080;-75
2022/07/27 07:10:35;;;;;;;7.20;5.43;;;;;;;23.84;98.83;97840.28;5013604;28;20022;-76
2022/07/27 07:13:04;;;;;;;7.47;5.43;;;;;;;23.27;100.00;97830.53;5013485;28;20030;-76
2022/07/27 07:15:29;;;;;;;8.50;5.35;;;;;;;23.44;100.00;97837.50;5013200;28;20475;-75
2022/07/27 07:17:54;;;;;;;7.00;5.30;;;;;;;23.38;100.00;97828.63;5013464;28;20045;-76
2022/07/27 07:20:20;;;;;;;12.55;5.95;;;;;;;23.42;100.00;97834.28;5013462;28;20018;-74
2022/07/27 07:22:46;;;;;;;8.43;5.13;;;;;;;23.11;100.00;97835.50;5013630;28;20056;-75
2022/07/27 07:25:11;;;;;;;6.97;5.05;;;;;;;22.91;100.00;97829.28;5012636;28;20121;-75
2022/07/27 07:27:36;;;;;;;11.38;5.30;;;;;;;22.79;100.00;97820.34;5013044;28;20079;-75
2022/07/27 07:30:03;;;;;;;5.82;4.78;;;;;;;22.53;100.00;97810.00;5013277;28;20471;-75
2022/07/27 07:32:29;;;;;;;5.63;4.70;;;;;;;22.20;100.00;97793.19;5013310;28;20030;-74
2022/07/27 07:34:55;;;;;;;11.30;5.00;;;;;;;22.06;100.00;97785.41;5013289;28;20558;-75
2022/07/27 07:37:20;;;;;;;7.28;4.93;;;;;;;21.83;100.00;97773.50;4995989;28;20034;-75
2022/07/27 07:39:47;;;;;;;7.60;4.65;;;;;;;21.81;100.00;97759.13;5013167;28;20077;-74
2022/07/27 07:42:12;;;;;;;6.35;4.57;;;;;;;21.85;100.00;97746.06;5013111;28;20025;-75
2022/07/27 07:44:38;;;;;;;11.27;5.20;;;;;;;21.78;100.00;97735.59;4995512;28;20445;-74
2022/07/27 07:47:04;;;;;;;9.18;4.85;;;;;;;21.78;100.00;97716.13;4995381;28;20030;-75
2022/07/27 07:49:29;;;;;;;12.63;5.32;;;;;;;21.76;100.00;97721.25;5012910;28;20044;-75
2022/07/27 07:51:54;;;;;;;6.13;4.80;;;;;;;21.71;100.00;97717.97;5013043;28;20030;-75
2022/07/27 07:54:20;;;;;;;7.03;4.60;;;;;;;21.72;100.00;97725.16;5013005;28;20065;-76
2022/07/27 07:56:45;;;;;;;8.20;4.45;;;;;;;21.62;100.00;97721.03;5013035;28;20026;-75
2022/07/27 07:59:10;;;;;;;8.25;5.47;;;;;;;21.65;100.00;97723.06;4995334;28;20475;-74
2022/07/27 08:01:36;;;;;;;7.13;5.40;;;;;;;21.55;100.00;97706.97;5013526;28;20115;-75
2022/07/27 08:04:01;;;;;;;7.65;5.18;;;;;;;21.39;100.00;97698.00;5017070;28;20033;-75
2022/07/27 08:06:27;;;;;;;8.73;5.53;;;;;;;21.35;100.00;97700.72;5014806;28;20034;-75
2022/07/27 08:08:52;;;;;;;7.00;5.30;;;;;;;21.26;100.00;97714.06;5012669;28;20018;-74
2022/07/27 08:11:18;;;;;;;7.47;5.38;;;;;;;21.31;100.00;97733.22;5012676;28;20116;-74
2022/07/27 08:13:43;;;;;;;8.30;5.55;;;;;;;21.47;100.00;97746.22;4994351;28;20110;-74
2022/07/27 08:16:08;;;;;;;9.80;5.25;;;;;;;21.50;100.00;97731.56;5012677;28;20076;-75
2022/07/27 08:18:34;;;;;;;9.85;5.53;;;;;;;21.76;100.00;97720.47;4994706;28;20041;-75
2022/07/27 08:21:00;;;;;;;6.72;5.78;;;;;;;21.99;100.00;97693.34;5012267;28;20041;-74
2022/07/27 08:23:26;;;;;;;7.22;5.25;;;;;;;22.18;100.00;97690.44;4994902;28;20478;-75
2022/07/27 08:25:52;;;;;;;9.90;5.90;;;;;;;22.45;100.00;97696.78;5012472;28;20022;-74
2022/07/27 08:28:17;;;;;;;9.40;5.45;;;;;;;22.98;100.00;97691.84;5012224;28;20426;-75
2022/07/27 08:30:43;;;;;;;6.80;5.07;;;;;;;23.62;100.00;97706.41;5012379;28;20022;-75
2022/07/27 08:33:09;;;;;;;8.32;5.18;;;;;;;24.40;100.00;97716.13;4994469;28;20042;-76
2022/07/27 08:35:34;;;;;;;8.32;4.88;;;;;;;25.32;100.00;97708.03;5012213;28;20394;-75
2022/07/27 08:38:04;;;;;;;8.18;5.55;;;;;;;26.24;95.42;97700.44;4994117;28;20409;-76
2022/07/27 08:40:29;;;;;;;7.15;4.95;;;;;;;27.63;86.05;97696.50;5012334;28;20088;-75
2022/07/27 08:42:54;;;;;;;6.72;5.20;;;;;;;29.34;75.09;97701.84;5012099;28;20034;-75
2022/07/27 08:45:20;;;;;;;9.90;5.45;;;;;;;30.65;67.11;97711.66;5012592;28;20040;-74
2022/07/27 08:47:46;;;;;;;8.20;5.65;;;;;;;31.50;60.16;97726.00;5011619;28;20018;-75
2022/07/27 08:50:22;;;;;;;7.70;5.05;;;;;;;32.38;57.32;97725.81;5014518;28;20081;-73
2022/07/27 08:53:10;;;;;;;7.30;4.80;;;;;;;32.68;53.95;97731.88;5014948;28;20040;-74
2022/07/27 08:55:41;;;;;;;10.68;5.88;;;;;;;33.03;51.35;97738.56;5014577;28;20065;-75
2022/07/27 08:58:08;;;;;;;6.95;4.40;;;;;;;33.53;48.38;97732.19;5011345;28;20129;-74
2022/07/27 09:00:37;;;;;;;6.22;5.15;;;;;;;33.71;48.22;97718.25;5011390;28;20041;-75
2022/07/27 09:03:02;;;;;;;7.65;4.88;;;;;;;33.53;49.11;97729.34;5011381;28;20113;-74
2022/07/27 09:05:28;;;;;;;6.65;4.95;;;;;;;32.86;49.09;97715.16;4993705;28;20112;-73
2022/07/27 09:07:53;;;;;;;6.47;4.65;;;;;;;32.48;48.76;97707.75;5011265;28;20026;-74
2022/07/27 09:10:33;;;;;;;6.43;5.00;;;;;;;31.80;50.13;97703.81;5011013;28;20049;-75
2022/07/27 09:13:14;;;;;;;4.65;3.67;;;;;;;31.58;49.70;97704.78;4993704;28;20034;-75
2022/07/27 09:15:45;;;;;;;7.10;4.72;;;;;;;31.79;49.57;97713.56;4993801;28;20112;-74
2022/07/27 09:18:22;;;;;;;6.25;4.53;;;;;;;31.97;49.18;97712.31;5011148;28;20034;-74
2022/07/27 09:21:17;;;;;;;6.30;5.10;;;;;;;31.51;50.72;97710.63;5011099;28;20489;-73
2022/07/27 09:23:54;;;;;;;7.90;4.13;;;;;;;32.46;47.79;97708.19;5010885;28;20037;-73
2022/07/27 09:26:25;;;;;;;5.63;4.32;;;;;;;30.60;51.92;97703.69;5011063;28;20026;-74
2022/07/27 09:29:13;;;;;;;9.35;5.15;;;;;;;31.91;49.34;97703.56;5011140;28;20037;-74
2022/07/27 09:31:47;;;;;;;6.63;4.65;;;;;;;32.61;46.97;97698.06;5010780;28;20109;-74
2022/07/27 09:34:27;;;;;;;6.38;4.75;;;;;;;32.65;46.96;97698.75;5010750;28;20117;-74
2022/07/27 09:36:56;;;;;;;5.68;4.10;;;;;;;32.56;46.58;97692.97;5010781;28;20340;-74
2022/07/27 09:39:23;;;;;;;8.95;4.93;;;;;;;31.61;47.72;97693.38;4992839;28;20041;-73
2022/07/27 09:41:52;;;;;;;8.13;5.05;;;;;;;31.18;48.89;97684.28;5010663;28;20041;-74
2022/07/27 09:44:32;;;;;;;5.78;4.50;;;;;;;31.61;47.59;97687.72;5010732;28;20037;-75
2022/07/27 09:46:58;;;;;;;6.00;4.57;;;;;;;31.41;46.97;97695.47;5010505;28;20030;-74
2022/07/27 09:49:33;;;;;;;5.55;4.40;;;;;;;30.64;47.99;97687.44;5010168;28;20057;-73
2022/07/27 09:52:00;;;;;;;5.68;3.85;;;;;;;29.89;47.14;97703.38;4993235;28;20121;-75
2022/07/27 09:54:26;;;;;;;5.35;4.15;;;;;;;29.43;48.13;97696.47;5010967;28;20026;-74
2022/07/27 09:57:00;;;;;;;5.53;4.53;;;;;;;30.15;47.82;97679.94;4993432;28;20506;-74
2022/07/27 09:59:25;;;;;;;6.38;4.00;;;;;;;30.93;45.38;97692.50;5010929;28;20076;-74
2022/07/27 10:01:53;;;;;;;5.95;4.13;;;;;;;29.46;47.17;97697.63;5011004;28;20034;-73
2022/07/27 10:04:18;;;;;;;6.20;4.20;;;;;;;29.38;46.98;97684.88;5010986;28;20065;-74
2022/07/27 10:06:44;;;;;;;7.90;4.38;;;;;;;29.69;45.88;97678.72;5010695;28;20034;-74
2022/07/27 10:09:09;;;;;;;6.05;4.40;;;;;;;29.58;46.61;97694.19;5010882;28;20030;-74
2022/07/27 10:11:36;;;;;;;6.95;4.18;;;;;;;29.71;44.42;97693.19;5011414;28;20018;-75
2022/07/27 10:14:02;;;;;;;5.10;3.90;;;;;;;29.02;46.06;97678.94;4993411;28;20084;-74
2022/07/27 10:16:31;;;;;;;8.18;4.50;;;;;;;29.26;45.86;97683.41;4993701;28;20033;-74
2022/07/27 10:19:22;;;;;;;8.35;4.05;;;;;;;29.99;44.24;97685.47;4996130;28;20113;-74
2022/07/27 10:21:48;;;;;;;6.95;3.80;;;;;;;29.88;44.70;97679.25;5020381;28;20099;-72
2022/07/27 10:24:35;;;;;;;6.82;3.70;;;;;;;29.36;45.83;97682.47;5014868;28;20068;-74
2022/07/27 10:27:26;;;;;;;5.30;4.07;;;;;;;28.26;49.23;97694.31;5011037;28;20030;-75
2022/07/27 10:29:53;;;;;;;7.10;4.38;;;;;;;28.57;47.50;97690.34;5000075;28;20046;-74
2022/07/27 10:32:29;;;;;;;9.45;3.90;;;;;;;27.77;50.87;97677.91;5010641;28;20033;-73
2022/07/27 10:34:55;;;;;;;5.50;4.03;;;;;;;27.56;51.43;97674.09;5010821;28;20114;-73
2022/07/27 10:37:31;;;;;;;6.15;4.05;;;;;;;27.53;52.31;97674.13;5010769;28;20116;-74
2022/07/27 10:42:45;;;;;;;6.05;4.28;;;;;;;29.09;46.72;97673.19;5011369;28;20386;-74
2022/07/27 10:45:15;;;;;;;6.45;4.32;;;;;;;28.52;47.09;97690.81;5010757;28;20113;-75
2022/07/27 10:47:43;;;;;;;4.85;3.97;;;;;;;28.05;46.64;97686.91;5010650;28;20057;-73
2022/07/27 10:50:14;;;;;;;7.25;4.30;;;;;;;28.03;47.20;97672.44;5010520;28;20040;-74
2022/07/27 10:52:52;;;;;;;5.72;4.18;;;;;;;27.12;48.72;97676.81;5010318;28;20022;-74
2022/07/27 10:55:30;;;;;;;5.22;4.10;;;;;;;26.99;49.21;97667.25;5010521;28;20080;-75
2022/07/27 10:58:13;;;;;;;6.10;4.13;;;;;;;26.96;51.45;97673.69;5010228;28;20088;-75
2022/07/27 11:00:48;;;;;;;7.35;4.28;;;;;;;26.83;52.41;97673.38;5012187;28;20060;-74
2022/07/27 11:03:26;;;;;;;8.23;4.30;;;;;;;27.32;51.44;97661.00;5013924;28;20034;-74
2022/07/27 11:06:06;;;;;;;4.60;4.00;;;;;;;27.59;50.89;97656.41;5014157;28;20026;-74
2022/07/27 11:08:33;;;;;;;5.70;4.40;;;;;;;27.34;51.36;97650.16;5013924;28;20080;-73
2022/07/27 11:11:00;;;;;;;5.32;3.95;;;;;;;27.36;52.40;97647.72;5013904;28;20104;-73
2022/07/27 11:13:27;;;;;;;5.68;4.45;;;;;;;26.81;52.41;97652.53;4996218;28;20025;-74
2022/07/27 11:15:53;;;;;;;5.68;4.10;;;;;;;26.89;52.94;97651.25;5013497;28;20022;-73
2022/07/27 11:18:35;;;;;;;5.55;4.22;;;;;;;26.99;53.08;97658.81;5013310;28;20026;-74
2022/07/27 11:21:28;;;;;;;6.93;4.30;;;;;;;27.27;52.95;97660.63;4996047;28;20076;-74
2022/07/27 11:23:57;;;;;;;7.90;4.55;;;;;;;27.35;53.22;97656.56;5005280;28;20042;-73
2022/07/27 11:26:26;;;;;;;5.57;4.32;;;;;;;27.25;53.94;97663.06;5013407;28;20060;-74
2022/07/27 11:28:52;;;;;;;5.32;4.43;;;;;;;27.53;51.99;97651.63;5013608;28;20065;-74
2022/07/27 11:31:18;;;;;;;5.43;4.57;;;;;;;28.05;50.25;97655.16;5013508;28;20141;-73
2022/07/27 11:33:50;;;;;;;6.45;4.57;;;;;;;28.19;49.51;97658.63;5013169;28;20033;-73
2022/07/27 11:36:16;;;;;;;7.78;4.45;;;;;;;27.84;51.12;97663.81;5013297;28;20034;-73